createdAt,value
2018-12-19T00:00:08.004Z,2.44
2018-12-19T00:05:10.389Z,2.51
2018-12-19T00:10:13.238Z,2.55
2018-12-19T00:15:15.546Z,2.49
2018-12-19T00:20:18.291Z,2.48
2018-12-19T00:25:21.433Z,2.47
2018-12-19T00:30:24.108Z,2.47
2018-12-19T00:35:26.865Z,2.44
2018-12-19T00:40:29.528Z,2.37
2018-12-19T00:45:31.987Z,2.37
2018-12-19T00:50:34.664Z,2.39
2018-12-19T00:55:37.050Z,2.40
2018-12-19T01:00:39.642Z,2.45
2018-12-19T01:05:42.298Z,2.48
2018-12-19T01:10:44.952Z,2.43
2018-12-19T01:15:47.591Z,2.52
2018-12-19T01:20:49.930Z,2.47
2018-12-19T01:25:52.579Z,2.48
2018-12-19T01:30:55.046Z,2.46
2018-12-19T01:35:57.509Z,2.49
2018-12-19T01:41:00.867Z,2.49
2018-12-19T01:46:03.728Z,2.53
2018-12-19T01:51:06.226Z,2.49
2018-12-19T01:56:08.758Z,2.51
2018-12-19T02:01:11.124Z,2.54
2018-12-19T02:06:14.567Z,2.51
2018-12-19T02:11:17.050Z,2.50
2018-12-19T02:16:19.900Z,2.51
2018-12-19T02:21:22.295Z,2.47
2018-12-19T02:26:25.152Z,2.39
2018-12-19T02:31:27.562Z,2.55
2018-12-19T02:36:30.290Z,2.48
2018-12-19T02:41:32.819Z,2.50
2018-12-19T02:46:35.930Z,2.49
2018-12-19T02:51:38.344Z,2.48
2018-12-19T02:56:40.863Z,2.45
2018-12-19T03:01:43.197Z,2.50
2018-12-19T03:06:45.553Z,2.45
2018-12-19T03:11:48.378Z,2.44
2018-12-19T03:16:50.795Z,2.50
2018-12-19T03:21:53.378Z,2.46
2018-12-19T03:26:55.671Z,2.50
2018-12-19T03:31:58.553Z,2.54
2018-12-19T03:37:00.877Z,2.52
2018-12-19T03:42:03.337Z,2.51
2018-12-19T03:47:05.670Z,2.49
2018-12-19T03:52:08.677Z,2.53
2018-12-19T03:57:11.428Z,2.47
2018-12-19T04:02:13.969Z,2.48
2018-12-19T04:07:16.384Z,2.48
2018-12-19T04:12:18.962Z,2.48
2018-12-19T04:17:21.299Z,2.54
2018-12-19T04:22:26.297Z,2.57
2018-12-19T04:27:28.785Z,2.55
2018-12-19T04:32:34.238Z,2.50
2018-12-19T04:37:36.520Z,2.49
2018-12-19T04:42:39.105Z,2.52
2018-12-19T04:47:41.792Z,2.46
2018-12-19T04:52:44.367Z,2.51
2018-12-19T04:57:46.711Z,2.50
2018-12-19T05:02:49.407Z,2.50
2018-12-19T05:07:53.511Z,2.49
2018-12-19T05:12:55.833Z,2.48
2018-12-19T05:17:58.129Z,2.52
2018-12-19T05:23:00.573Z,2.55
2018-12-19T05:28:02.880Z,2.51
2018-12-19T05:33:05.665Z,2.50
2018-12-19T05:38:08.145Z,2.57
2018-12-19T05:43:10.676Z,2.40
2018-12-19T05:48:13.411Z,2.42
2018-12-19T05:53:15.991Z,2.44
2018-12-19T05:58:18.534Z,2.42
2018-12-19T06:03:20.944Z,2.41
2018-12-19T06:08:23.571Z,2.43
2018-12-19T06:13:25.926Z,2.41
2018-12-19T06:18:28.536Z,2.39
2018-12-19T06:23:31.201Z,2.44
2018-12-19T06:28:33.738Z,2.47
2018-12-19T06:33:36.876Z,2.48
2018-12-19T06:38:39.542Z,2.47
2018-12-19T06:43:43.004Z,2.43
2018-12-19T06:48:45.589Z,2.50
2018-12-19T06:53:48.079Z,2.46
2018-12-19T06:58:50.426Z,2.57
2018-12-19T07:03:53.422Z,2.57
2018-12-19T07:08:55.897Z,2.54
2018-12-19T07:13:58.454Z,2.56
2018-12-19T07:19:00.826Z,2.60
2018-12-19T07:24:03.370Z,2.58
2018-12-19T07:29:05.719Z,2.60
2018-12-19T07:34:08.213Z,2.64
2018-12-19T07:39:10.675Z,2.70
2018-12-19T07:44:13.042Z,2.63
2018-12-19T07:49:15.419Z,2.74
2018-12-19T07:54:17.876Z,2.79
2018-12-19T07:59:20.461Z,2.78
2018-12-19T08:04:23.195Z,2.94
2018-12-19T08:09:25.510Z,2.92
2018-12-19T08:14:27.861Z,3.39
2018-12-19T08:19:30.163Z,3.46
2018-12-19T08:24:32.567Z,3.26
2018-12-19T08:29:34.928Z,3.38
2018-12-19T08:34:37.300Z,3.26
2018-12-19T08:39:39.920Z,3.13
2018-12-19T08:44:42.688Z,3.18
2018-12-19T08:49:45.418Z,3.18
2018-12-19T08:54:47.707Z,3.46
2018-12-19T08:59:50.543Z,3.14
2018-12-19T09:04:52.931Z,3.19
2018-12-19T09:09:55.702Z,3.10
2018-12-19T09:14:58.310Z,3.23
2018-12-19T09:20:01.376Z,3.25
2018-12-19T09:25:03.950Z,3.31
2018-12-19T09:30:07.633Z,3.34
2018-12-19T09:35:10.492Z,3.35
2018-12-19T09:40:13.228Z,3.45
2018-12-19T09:45:15.885Z,3.52
2018-12-19T09:50:18.513Z,3.53
2018-12-19T09:55:20.953Z,3.59
2018-12-19T10:00:26.893Z,3.70
2018-12-19T10:05:29.552Z,3.77
2018-12-19T10:10:32.021Z,3.87
2018-12-19T10:15:34.773Z,3.84
2018-12-19T10:20:37.649Z,3.76
2018-12-19T10:25:40.305Z,3.76
2018-12-19T10:30:47.170Z,3.70
2018-12-19T10:35:50.219Z,3.74
2018-12-19T10:40:53.529Z,3.74
2018-12-19T10:45:56.747Z,3.70
2018-12-19T10:50:59.225Z,3.78
2018-12-19T10:56:02.915Z,3.81
2018-12-19T11:01:05.815Z,3.88
2018-12-19T11:06:08.925Z,4.04
2018-12-19T11:11:11.643Z,4.10
2018-12-19T11:16:14.448Z,4.15
2018-12-19T11:21:16.933Z,4.25
2018-12-19T11:26:19.429Z,4.30
2018-12-19T11:31:21.832Z,4.41
2018-12-19T11:36:24.527Z,4.33
2018-12-19T11:41:27.743Z,4.30
2018-12-19T11:46:31.735Z,4.33
2018-12-19T11:51:34.363Z,4.33
2018-12-19T11:56:36.955Z,4.39
2018-12-19T12:01:41.532Z,4.42
2018-12-19T12:06:44.220Z,4.34
2018-12-19T12:11:46.613Z,4.34
2018-12-19T12:16:49.048Z,4.42
2018-12-19T12:21:51.595Z,4.43
2018-12-19T12:26:54.096Z,4.42
2018-12-19T12:31:56.817Z,4.41
2018-12-19T12:36:59.721Z,4.39
2018-12-19T12:42:02.348Z,4.41
2018-12-19T12:47:04.778Z,4.43
2018-12-19T12:52:07.481Z,4.45
2018-12-19T12:57:10.143Z,4.45
2018-12-19T13:02:13.134Z,4.47
2018-12-19T13:07:15.676Z,4.48
2018-12-19T13:12:18.282Z,4.61
2018-12-19T13:17:20.947Z,4.69
2018-12-19T13:22:24.027Z,4.67
2018-12-19T13:27:33.021Z,4.73
2018-12-19T13:32:35.563Z,4.71
2018-12-19T13:37:37.959Z,4.79
2018-12-19T13:42:40.454Z,4.79
2018-12-19T13:47:42.942Z,4.78
2018-12-19T13:52:45.678Z,4.82
2018-12-19T13:57:48.059Z,4.77
2018-12-19T14:02:50.646Z,4.72
2018-12-19T14:07:53.153Z,4.71
2018-12-19T14:12:56.125Z,4.75
2018-12-19T14:17:59.230Z,4.74
2018-12-19T14:23:02.734Z,4.75
2018-12-19T14:28:05.268Z,4.70
2018-12-19T14:33:08.339Z,4.64
2018-12-19T14:38:11.641Z,4.65
2018-12-19T14:43:14.158Z,4.72
2018-12-19T14:48:16.494Z,4.63
2018-12-19T14:53:19.223Z,4.69
2018-12-19T14:58:22.582Z,4.67
2018-12-19T15:03:25.078Z,4.78
2018-12-19T15:08:27.515Z,4.78
2018-12-19T15:13:30.222Z,4.71
2018-12-19T15:18:32.565Z,4.64
2018-12-19T15:23:34.983Z,4.78
2018-12-19T15:28:37.376Z,4.66
2018-12-19T15:33:39.767Z,4.67
2018-12-19T15:38:42.174Z,4.72
2018-12-19T15:43:44.755Z,4.63
2018-12-19T15:48:47.226Z,4.60
2018-12-19T15:53:50.433Z,4.70
2018-12-19T15:58:53.040Z,4.66
2018-12-19T16:03:55.415Z,4.62
2018-12-19T16:08:57.798Z,4.57
2018-12-19T16:14:00.491Z,4.67
2018-12-19T16:19:03.116Z,4.56
2018-12-19T16:24:05.418Z,4.59
2018-12-19T16:29:07.994Z,4.62
2018-12-19T16:34:10.584Z,4.57
2018-12-19T16:39:12.959Z,4.71
2018-12-19T16:44:15.433Z,4.67
2018-12-19T16:49:18.243Z,4.74
2018-12-19T16:54:20.791Z,4.63
2018-12-19T16:59:23.215Z,4.59
2018-12-19T17:04:25.563Z,4.74
2018-12-19T17:09:27.996Z,4.60
2018-12-19T17:14:30.397Z,4.57
2018-12-19T17:19:33.095Z,4.39
2018-12-19T17:24:39.885Z,4.37
2018-12-19T17:29:42.308Z,4.46
2018-12-19T17:34:44.653Z,4.34
2018-12-19T17:39:46.976Z,4.21
2018-12-19T17:44:49.397Z,4.13
2018-12-19T17:49:52.446Z,4.12
2018-12-19T17:54:54.970Z,4.22
2018-12-19T17:59:57.337Z,4.35
2018-12-19T18:04:59.814Z,4.36
2018-12-19T18:10:02.194Z,4.44
2018-12-19T18:15:04.589Z,4.51
2018-12-19T18:20:07.539Z,4.50
2018-12-19T18:25:10.277Z,4.54
2018-12-19T18:30:12.875Z,4.52
2018-12-19T18:35:15.360Z,4.51
2018-12-19T18:40:17.778Z,4.53
2018-12-19T18:45:21.066Z,4.53
2018-12-19T18:50:23.522Z,4.51
2018-12-19T18:55:26.121Z,4.56
2018-12-19T19:00:33.577Z,4.51
2018-12-19T19:05:36.978Z,4.52
2018-12-19T19:10:39.683Z,4.53
2018-12-19T19:15:44.183Z,4.51
2018-12-19T19:20:46.764Z,4.50
2018-12-19T19:25:49.159Z,4.50
2018-12-19T19:30:51.684Z,4.54
2018-12-19T19:35:54.320Z,4.50
2018-12-19T19:40:56.862Z,4.51
2018-12-19T19:45:59.424Z,4.50
2018-12-19T19:51:01.921Z,4.48
2018-12-19T19:56:04.466Z,4.47
2018-12-19T20:01:07.023Z,4.44
2018-12-19T20:06:09.521Z,4.46
2018-12-19T20:11:13.014Z,4.47
2018-12-19T20:16:15.424Z,4.49
2018-12-19T20:21:17.862Z,4.46
2018-12-19T20:26:20.275Z,4.46
2018-12-19T20:31:22.701Z,4.45
2018-12-19T20:36:25.093Z,4.51
2018-12-19T20:41:27.686Z,4.44
2018-12-19T20:46:30.042Z,4.32
2018-12-19T20:51:32.566Z,4.23
2018-12-19T20:56:35.161Z,4.21
2018-12-19T21:01:38.373Z,4.25
2018-12-19T21:06:40.795Z,4.21
2018-12-19T21:11:43.631Z,4.16
2018-12-19T21:16:51.792Z,4.09
2018-12-19T21:21:54.417Z,4.03
2018-12-19T21:26:56.985Z,4.04
2018-12-19T21:31:59.366Z,4.05
2018-12-19T21:37:02.193Z,4.05
2018-12-19T21:42:04.832Z,3.92
2018-12-19T21:47:07.296Z,3.84
2018-12-19T21:52:10.026Z,3.81
2018-12-19T21:57:12.387Z,3.89
2018-12-19T22:02:14.987Z,3.88
2018-12-19T22:07:17.552Z,3.89
2018-12-19T22:12:19.998Z,3.82
2018-12-19T22:17:28.298Z,3.88
2018-12-19T22:22:30.819Z,3.99
2018-12-19T22:27:33.628Z,3.98
2018-12-19T22:32:36.013Z,3.99
2018-12-19T22:37:39.046Z,4.03
2018-12-19T22:42:41.500Z,4.05
2018-12-19T22:47:44.035Z,4.04
2018-12-19T22:52:46.914Z,4.12
2018-12-19T22:57:49.285Z,4.12
2018-12-19T23:02:57.533Z,4.17
2018-12-19T23:08:00.146Z,4.12
2018-12-19T23:13:03.086Z,4.13
2018-12-19T23:18:11.279Z,4.15
2018-12-19T23:23:13.835Z,4.16
2018-12-19T23:28:16.423Z,4.16
2018-12-19T23:33:18.838Z,4.16
2018-12-19T23:38:21.345Z,4.16
2018-12-19T23:43:23.697Z,4.15
2018-12-19T23:48:26.035Z,4.16
2018-12-19T23:53:28.608Z,4.15
2018-12-19T23:58:31.073Z,4.17
